Terminal Aerodrome Forecast
Issued by NWS North Platte, NE

Home | Current Version | Previous Version | Text Only | Print | Product List | Glossary Off
Versions: 1 2 3 4 5 6 7 8 9 10 11 12 13 14 15 16 17 18 19 20

000
FTUS43 KLBF 262100 AAA
TAFVTN
TAF AMD
KVTN 262123Z 2621/2718 18006KT P6SM SCT012 BKN035
      TEMPO 2621/2701 BKN012
     FM270900 VRB03KT P6SM SCT020 BKN040
     FM271500 17010KT 4SM -RASN BKN020=

USA.gov is the U.S. government's official web portal to all federal, state and local government web resources and services.